createdAt,value
2023-03-20T00:00:01.155Z,69.85
2023-03-20T00:01:05.396Z,69.33
2023-03-20T00:02:08.039Z,69.16
2023-03-20T00:03:13.268Z,69.49
2023-03-20T00:04:15.995Z,69.20
2023-03-20T00:05:22.725Z,69.35
2023-03-20T00:06:27.349Z,68.97
2023-03-20T00:07:31.154Z,69.18
2023-03-20T00:08:33.633Z,69.04
2023-03-20T00:09:37.696Z,68.75
2023-03-20T00:10:42.050Z,68.84
2023-03-20T00:11:50.182Z,68.99
2023-03-20T00:12:52.692Z,69.42
2023-03-20T00:13:58.127Z,69.43
2023-03-20T00:15:04.378Z,69.81
2023-03-20T00:16:08.325Z,69.58
2023-03-20T00:17:18.372Z,69.27
2023-03-20T00:18:25.389Z,69.56
2023-03-20T00:19:29.615Z,69.48
2023-03-20T00:20:33.403Z,69.39
2023-03-20T00:21:35.948Z,69.37
2023-03-20T00:22:39.479Z,69.15
2023-03-20T00:23:43.508Z,68.86
2023-03-20T00:24:46.237Z,69.08
2023-03-20T00:25:49.987Z,69.04
2023-03-20T00:26:53.561Z,69.67
2023-03-20T00:27:57.417Z,69.84
2023-03-20T00:29:02.198Z,69.68
2023-03-20T00:30:14.902Z,70.34
2023-03-20T00:31:25.884Z,70.23
2023-03-20T00:32:29.622Z,69.72
2023-03-20T00:33:32.274Z,69.72
2023-03-20T00:34:36.327Z,69.98
2023-03-20T00:35:39.026Z,69.63
2023-03-20T00:36:42.586Z,69.84
2023-03-20T00:37:45.357Z,69.61
2023-03-20T00:38:49.573Z,69.60
2023-03-20T00:39:52.177Z,69.47
2023-03-20T00:40:55.637Z,69.43
2023-03-20T00:42:02.490Z,69.48
2023-03-20T00:43:06.639Z,69.04
2023-03-20T00:44:20.775Z,69.33
2023-03-20T00:45:24.627Z,69.10
2023-03-20T00:46:28.609Z,69.04
2023-03-20T00:47:37.167Z,68.95
2023-03-20T00:48:42.079Z,68.96
2023-03-20T00:49:46.509Z,69.20
2023-03-20T00:50:49.901Z,69.12
2023-03-20T00:51:53.795Z,69.55
2023-03-20T00:52:57.656Z,69.49
2023-03-20T00:54:01.554Z,69.73
2023-03-20T00:55:04.247Z,69.25
2023-03-20T00:56:08.822Z,69.20
2023-03-20T00:57:18.105Z,69.00
2023-03-20T00:58:21.793Z,68.69
2023-03-20T00:59:29.342Z,68.93
2023-03-20T01:00:40.355Z,69.00
2023-03-20T01:01:42.990Z,69.32
2023-03-20T01:02:47.948Z,69.55
2023-03-20T01:03:50.758Z,69.78
2023-03-20T01:04:54.402Z,69.86
2023-03-20T01:05:58.920Z,70.21
2023-03-20T01:07:02.821Z,70.16
2023-03-20T01:08:11.838Z,70.24
2023-03-20T01:09:14.551Z,70.21
2023-03-20T01:10:19.115Z,70.65
2023-03-20T01:11:24.500Z,70.55
2023-03-20T01:12:28.518Z,70.34
2023-03-20T01:13:32.850Z,70.34
2023-03-20T01:14:38.249Z,70.20
2023-03-20T01:15:41.326Z,70.37
2023-03-20T01:16:44.962Z,70.56
2023-03-20T01:17:47.784Z,70.58
2023-03-20T01:18:51.611Z,70.34
2023-03-20T01:19:54.807Z,70.44
2023-03-20T01:20:58.627Z,70.41
2023-03-20T01:22:02.917Z,70.38
2023-03-20T01:23:07.233Z,70.03
2023-03-20T01:24:10.200Z,70.00
2023-03-20T01:25:14.011Z,69.70
2023-03-20T01:26:24.427Z,69.65
2023-03-20T01:27:28.867Z,69.81
2023-03-20T01:28:32.600Z,70.04
2023-03-20T01:29:37.953Z,69.95
2023-03-20T01:30:40.575Z,69.90
2023-03-20T01:31:44.922Z,70.18
2023-03-20T01:32:48.551Z,70.14
2023-03-20T01:33:52.852Z,70.19
2023-03-20T01:34:55.476Z,70.28
2023-03-20T01:35:59.666Z,70.20
2023-03-20T01:37:02.762Z,70.07
2023-03-20T01:38:13.859Z,70.18
2023-03-20T01:39:17.227Z,70.02
2023-03-20T01:40:32.117Z,70.09
2023-03-20T01:41:34.841Z,70.24
2023-03-20T01:42:43.272Z,70.14
2023-03-20T01:43:46.844Z,70.22
2023-03-20T01:44:53.017Z,70.21
2023-03-20T01:46:02.883Z,70.51
2023-03-20T01:47:16.134Z,70.24
2023-03-20T01:48:21.714Z,70.10
2023-03-20T01:50:01.620Z,70.10
2023-03-20T01:51:06.182Z,69.84
2023-03-20T01:52:08.743Z,69.57
2023-03-20T01:53:17.223Z,69.39
2023-03-20T01:54:23.471Z,69.17
2023-03-20T01:55:27.013Z,69.37
2023-03-20T01:56:33.610Z,69.33
2023-03-20T01:57:37.726Z,69.02
2023-03-20T01:58:46.175Z,68.96
2023-03-20T01:59:54.574Z,68.80
2023-03-20T02:00:58.770Z,68.75
2023-03-20T02:02:01.704Z,68.77
2023-03-20T02:03:07.841Z,69.14
2023-03-20T02:04:11.446Z,68.90
2023-03-20T02:05:19.029Z,68.93
2023-03-20T02:06:23.802Z,68.92
2023-03-20T02:07:27.555Z,69.03
2023-03-20T02:08:37.025Z,69.53
2023-03-20T02:09:39.371Z,69.68
2023-03-20T02:10:44.606Z,69.72
2023-03-20T02:11:49.391Z,70.18
2023-03-20T02:12:53.845Z,70.31
2023-03-20T02:13:59.775Z,70.04
2023-03-20T02:15:05.322Z,70.10
2023-03-20T02:16:11.367Z,70.29
2023-03-20T02:17:15.829Z,70.47
2023-03-20T02:18:18.320Z,70.25
2023-03-20T02:19:29.712Z,70.50
2023-03-20T02:20:43.846Z,70.21
2023-03-20T02:22:23.451Z,70.10
2023-03-20T02:24:06.557Z,70.35
2023-03-20T02:25:41.214Z,69.99
2023-03-20T02:27:03.433Z,70.36
2023-03-20T02:28:33.467Z,70.01
2023-03-20T02:30:02.994Z,70.50
2023-03-20T02:31:32.621Z,70.05
2023-03-20T02:33:14.225Z,69.92
2023-03-20T02:34:49.931Z,70.23
2023-03-20T02:36:34.574Z,70.44
2023-03-20T02:37:56.745Z,70.40
2023-03-20T02:39:18.453Z,70.47
2023-03-20T02:40:29.220Z,70.48
2023-03-20T02:41:40.153Z,70.34
2023-03-20T02:42:51.333Z,70.44
2023-03-20T02:44:06.349Z,70.50
2023-03-20T02:45:17.246Z,70.49
2023-03-20T02:46:34.041Z,70.48
2023-03-20T02:47:43.054Z,70.67
2023-03-20T02:48:55.825Z,70.31
2023-03-20T02:50:10.458Z,70.04
2023-03-20T02:51:21.487Z,70.44
2023-03-20T02:52:34.857Z,70.97
2023-03-20T02:53:46.679Z,71.24
2023-03-20T02:55:01.532Z,70.69
2023-03-20T02:56:13.844Z,70.68
2023-03-20T02:57:22.191Z,70.43
2023-03-20T02:58:28.756Z,70.79
2023-03-20T02:59:37.896Z,70.60
2023-03-20T03:00:47.978Z,70.81
2023-03-20T03:01:59.470Z,70.29
2023-03-20T03:03:08.559Z,70.32
2023-03-20T03:04:17.474Z,70.54
2023-03-20T03:05:24.601Z,70.74
2023-03-20T03:06:31.752Z,70.88
2023-03-20T03:07:36.294Z,70.83
2023-03-20T03:08:46.235Z,71.20
2023-03-20T03:09:54.382Z,70.88
2023-03-20T03:11:03.520Z,70.96
2023-03-20T03:12:12.229Z,70.59
2023-03-20T03:13:20.170Z,70.33
2023-03-20T03:14:35.838Z,70.68
2023-03-20T03:15:42.990Z,70.41
2023-03-20T03:16:48.665Z,70.36
2023-03-20T03:17:53.152Z,70.13
2023-03-20T03:19:02.190Z,70.79
2023-03-20T03:20:10.872Z,70.19
2023-03-20T03:21:16.538Z,70.25
2023-03-20T03:22:21.589Z,70.56
2023-03-20T03:23:27.213Z,70.16
2023-03-20T03:24:40.789Z,69.79
2023-03-20T03:25:44.302Z,69.83
2023-03-20T03:26:48.438Z,70.10
2023-03-20T03:27:58.355Z,70.25
2023-03-20T03:29:06.173Z,70.17
2023-03-20T03:30:14.952Z,69.98
2023-03-20T03:31:19.335Z,70.18
2023-03-20T03:32:30.696Z,69.87
2023-03-20T03:33:34.897Z,70.02
2023-03-20T03:34:38.657Z,70.03
2023-03-20T03:35:41.979Z,69.71
2023-03-20T03:36:52.738Z,69.57
2023-03-20T03:38:00.571Z,69.70
2023-03-20T03:39:11.996Z,69.78
2023-03-20T03:40:21.280Z,69.36
2023-03-20T03:41:32.345Z,69.57
2023-03-20T03:42:40.411Z,69.56
2023-03-20T03:43:51.706Z,69.60
2023-03-20T03:45:00.534Z,70.15
2023-03-20T03:46:08.848Z,69.71
2023-03-20T03:47:15.745Z,69.68
2023-03-20T03:48:22.491Z,69.60
2023-03-20T03:49:28.426Z,69.62
2023-03-20T03:50:36.127Z,69.68
2023-03-20T03:51:43.159Z,70.10
2023-03-20T03:52:50.970Z,70.01
2023-03-20T03:53:58.815Z,69.61
2023-03-20T03:55:06.390Z,69.93
2023-03-20T03:56:14.322Z,70.21
2023-03-20T03:57:24.665Z,70.53
2023-03-20T03:58:31.269Z,70.28
2023-03-20T03:59:39.355Z,70.17
2023-03-20T04:00:44.637Z,70.22
2023-03-20T04:01:49.090Z,70.25
2023-03-20T04:02:55.467Z,70.33
2023-03-20T04:04:04.733Z,70.24
2023-03-20T04:05:09.693Z,70.24
2023-03-20T04:06:14.109Z,69.83
2023-03-20T04:07:16.664Z,69.76
2023-03-20T04:08:20.332Z,69.83
2023-03-20T04:09:23.139Z,70.10
2023-03-20T04:10:26.808Z,70.14
2023-03-20T04:11:31.747Z,70.24
2023-03-20T04:12:37.523Z,70.33
2023-03-20T04:13:40.890Z,70.40
2023-03-20T04:14:44.492Z,70.20
2023-03-20T04:15:46.859Z,70.31
2023-03-20T04:16:50.547Z,70.22
2023-03-20T04:17:53.279Z,70.27
2023-03-20T04:18:57.381Z,69.62
2023-03-20T04:19:59.990Z,69.87
2023-03-20T04:21:03.678Z,69.70
2023-03-20T04:22:06.680Z,69.95
2023-03-20T04:23:10.450Z,69.77
2023-03-20T04:24:13.118Z,69.67
2023-03-20T04:25:21.638Z,69.49
2023-03-20T04:26:24.642Z,69.10
2023-03-20T04:27:30.539Z,68.75
2023-03-20T04:28:33.824Z,68.08
2023-03-20T04:29:39.205Z,68.62
2023-03-20T04:30:43.825Z,68.63
2023-03-20T04:31:47.635Z,68.25
2023-03-20T04:32:50.560Z,68.40
2023-03-20T04:33:54.860Z,68.53
2023-03-20T04:34:57.489Z,68.77
2023-03-20T04:36:01.196Z,68.79
2023-03-20T04:37:05.534Z,68.48
2023-03-20T04:38:09.015Z,69.13
2023-03-20T04:39:12.268Z,68.60
2023-03-20T04:40:14.791Z,68.71
2023-03-20T04:41:21.317Z,67.44
2023-03-20T04:42:23.813Z,66.95
2023-03-20T04:43:28.772Z,66.67
2023-03-20T04:44:31.261Z,66.07
2023-03-20T04:45:35.489Z,65.99
2023-03-20T04:46:38.245Z,66.89
2023-03-20T04:47:41.753Z,67.02
2023-03-20T04:48:44.572Z,67.21
2023-03-20T04:49:48.071Z,67.14
2023-03-20T04:50:51.111Z,66.61
2023-03-20T04:51:55.160Z,66.65
2023-03-20T04:52:58.337Z,67.35
2023-03-20T04:54:01.926Z,67.73
2023-03-20T04:55:06.141Z,67.33
2023-03-20T04:56:09.352Z,66.79
2023-03-20T04:57:13.184Z,66.09
2023-03-20T04:58:15.961Z,66.75
2023-03-20T04:59:21.007Z,67.47
2023-03-20T05:00:23.591Z,67.12
2023-03-20T05:01:27.275Z,66.82
2023-03-20T05:02:29.868Z,66.90
2023-03-20T05:03:33.475Z,66.78
2023-03-20T05:04:36.033Z,66.80
2023-03-20T05:05:39.782Z,67.51
2023-03-20T05:06:42.298Z,67.88
2023-03-20T05:07:45.781Z,67.87
2023-03-20T05:08:48.267Z,67.45
2023-03-20T05:09:51.777Z,67.24
2023-03-20T05:10:54.302Z,68.24
2023-03-20T05:11:57.916Z,68.03
2023-03-20T05:13:00.497Z,68.21
2023-03-20T05:14:04.875Z,67.91
2023-03-20T05:15:09.995Z,68.41
2023-03-20T05:16:13.655Z,67.38
2023-03-20T05:17:18.404Z,68.33
2023-03-20T05:18:20.759Z,67.86
2023-03-20T05:19:24.380Z,66.98
2023-03-20T05:20:27.429Z,67.34
2023-03-20T05:21:31.018Z,67.34
2023-03-20T05:22:33.787Z,67.05
2023-03-20T05:23:38.207Z,69.08
2023-03-20T05:24:40.912Z,67.87
2023-03-20T05:25:44.766Z,68.81
2023-03-20T05:26:47.859Z,68.26
2023-03-20T05:27:51.502Z,68.37
2023-03-20T05:28:54.576Z,68.79
2023-03-20T05:29:58.003Z,68.23
2023-03-20T05:31:01.889Z,69.22
2023-03-20T05:32:05.810Z,68.27
2023-03-20T05:33:08.699Z,68.64
2023-03-20T05:34:12.214Z,68.59
2023-03-20T05:35:14.605Z,69.37
2023-03-20T05:36:18.332Z,68.96
2023-03-20T05:37:20.894Z,69.41
2023-03-20T05:38:25.911Z,69.27
2023-03-20T05:39:28.558Z,69.38
2023-03-20T05:40:31.986Z,68.63
2023-03-20T05:41:34.290Z,69.28
2023-03-20T05:42:37.750Z,68.79
2023-03-20T05:43:40.570Z,69.61
2023-03-20T05:44:43.956Z,69.40
2023-03-20T05:45:46.387Z,68.98
2023-03-20T05:46:51.753Z,69.51
2023-03-20T05:47:54.231Z,69.65
2023-03-20T05:48:57.900Z,69.79
2023-03-20T05:50:01.831Z,70.02
2023-03-20T05:51:06.104Z,70.90
2023-03-20T05:52:08.663Z,70.49
2023-03-20T05:53:12.092Z,70.60
2023-03-20T05:54:14.554Z,70.73
2023-03-20T05:55:18.185Z,70.10
2023-03-20T05:56:20.653Z,69.88
2023-03-20T05:57:24.072Z,69.89
2023-03-20T05:58:27.531Z,70.36
2023-03-20T05:59:30.214Z,69.83
2023-03-20T06:00:33.742Z,70.26
2023-03-20T06:01:36.065Z,69.80
2023-03-20T06:02:41.210Z,69.83
2023-03-20T06:03:43.911Z,69.83
2023-03-20T06:04:47.549Z,69.76
2023-03-20T06:05:50.122Z,68.72
2023-03-20T06:06:53.674Z,68.88
2023-03-20T06:07:56.612Z,68.93
2023-03-20T06:09:00.158Z,69.66
2023-03-20T06:10:02.739Z,69.20
2023-03-20T06:11:06.751Z,69.32
2023-03-20T06:12:09.172Z,68.88
2023-03-20T06:13:13.322Z,68.32
2023-03-20T06:14:16.855Z,69.25
2023-03-20T06:15:20.378Z,68.85
2023-03-20T06:16:22.718Z,68.58
2023-03-20T06:17:26.409Z,68.68
2023-03-20T06:18:30.144Z,69.49
2023-03-20T06:19:33.600Z,70.41
2023-03-20T06:20:36.367Z,69.96
2023-03-20T06:21:39.875Z,70.12
2023-03-20T06:22:42.311Z,71.09
2023-03-20T06:23:45.807Z,71.30
2023-03-20T06:24:49.096Z,71.79
2023-03-20T06:25:52.776Z,71.62
2023-03-20T06:26:55.068Z,71.92
2023-03-20T06:27:59.037Z,72.12
2023-03-20T06:29:01.810Z,71.44
2023-03-20T06:30:06.289Z,71.32
2023-03-20T06:31:10.209Z,72.45
2023-03-20T06:32:14.852Z,72.05
2023-03-20T06:33:18.510Z,72.04
2023-03-20T06:34:22.256Z,71.31
2023-03-20T06:35:25.683Z,71.26
2023-03-20T06:36:27.843Z,71.64
2023-03-20T06:37:31.174Z,70.77
2023-03-20T06:38:33.716Z,70.52
2023-03-20T06:39:37.779Z,70.67
2023-03-20T06:40:41.906Z,69.98
2023-03-20T06:41:44.577Z,71.33
2023-03-20T06:42:48.080Z,70.98
2023-03-20T06:43:50.494Z,70.29
2023-03-20T06:44:54.057Z,69.40
2023-03-20T06:45:56.872Z,69.15
2023-03-20T06:47:00.692Z,69.12
2023-03-20T06:48:06.719Z,68.39
2023-03-20T06:49:10.341Z,69.43
2023-03-20T06:50:14.919Z,68.60
2023-03-20T06:51:18.283Z,68.96
2023-03-20T06:52:22.885Z,68.83
2023-03-20T06:53:27.204Z,69.09
2023-03-20T06:54:29.682Z,68.21
2023-03-20T06:55:33.124Z,67.94
2023-03-20T06:56:35.600Z,68.83
2023-03-20T06:57:39.506Z,67.66
2023-03-20T06:58:43.011Z,67.60
2023-03-20T06:59:45.632Z,67.91
2023-03-20T07:00:49.230Z,67.42
2023-03-20T07:01:53.020Z,66.96
2023-03-20T07:02:56.646Z,67.28
2023-03-20T07:03:59.418Z,68.10
2023-03-20T07:05:03.698Z,67.57
2023-03-20T07:06:09.546Z,67.66
2023-03-20T07:07:12.091Z,68.11
2023-03-20T07:08:15.759Z,66.72
2023-03-20T07:09:18.097Z,67.26
2023-03-20T07:10:21.786Z,66.91
2023-03-20T07:11:24.271Z,67.37
2023-03-20T07:12:28.884Z,67.26
2023-03-20T07:13:32.643Z,67.16
2023-03-20T07:14:36.058Z,67.29
2023-03-20T07:15:38.589Z,67.39
2023-03-20T07:16:42.469Z,67.96
2023-03-20T07:17:44.886Z,67.43
2023-03-20T07:18:48.532Z,67.59
2023-03-20T07:19:51.042Z,68.51
2023-03-20T07:20:54.856Z,68.01
2023-03-20T07:22:02.421Z,67.85
2023-03-20T07:23:06.295Z,67.25
2023-03-20T07:24:08.986Z,67.18
2023-03-20T07:25:13.060Z,67.52
2023-03-20T07:26:15.918Z,65.86
2023-03-20T07:27:20.651Z,65.00
2023-03-20T07:28:23.039Z,63.11
2023-03-20T07:29:26.909Z,62.02
2023-03-20T07:30:31.093Z,60.27
2023-03-20T07:31:34.473Z,59.56
2023-03-20T07:32:38.207Z,58.47
2023-03-20T07:33:41.775Z,57.41
2023-03-20T07:34:45.810Z,56.13
2023-03-20T07:35:52.912Z,55.13
2023-03-20T07:36:56.773Z,55.44
2023-03-20T07:38:01.694Z,53.26
2023-03-20T07:39:04.499Z,53.35
2023-03-20T07:40:09.107Z,51.35
2023-03-20T07:41:11.611Z,50.56
2023-03-20T07:42:15.443Z,51.35
2023-03-20T07:43:18.135Z,50.52
2023-03-20T07:44:22.078Z,51.33
2023-03-20T07:45:24.717Z,49.81
2023-03-20T07:46:28.363Z,48.65
2023-03-20T07:47:32.183Z,50.22
2023-03-20T07:48:34.746Z,49.50
2023-03-20T07:49:38.597Z,48.04
2023-03-20T07:50:42.190Z,47.37
2023-03-20T07:51:44.963Z,46.34
2023-03-20T07:52:49.382Z,46.42
2023-03-20T07:53:55.528Z,44.30
2023-03-20T07:54:59.459Z,44.48
2023-03-20T07:56:01.997Z,45.31
2023-03-20T07:57:06.313Z,45.47
2023-03-20T07:58:09.131Z,46.04
2023-03-20T07:59:13.786Z,46.92
2023-03-20T08:00:20.040Z,48.39
2023-03-20T08:01:23.065Z,48.35
2023-03-20T08:02:26.692Z,47.75
2023-03-20T08:03:30.371Z,47.32
2023-03-20T08:04:34.304Z,46.10
2023-03-20T08:05:37.785Z,44.65
2023-03-20T08:06:41.677Z,45.42
2023-03-20T08:07:46.142Z,44.34
2023-03-20T08:08:52.051Z,44.21
2023-03-20T08:09:57.065Z,45.74
2023-03-20T08:10:59.546Z,44.53
2023-03-20T08:12:04.316Z,44.47
2023-03-20T08:13:07.646Z,46.19
2023-03-20T08:14:11.587Z,44.19
2023-03-20T08:15:14.758Z,43.27
2023-03-20T08:16:18.282Z,42.83
2023-03-20T08:17:22.960Z,41.30
2023-03-20T08:18:27.290Z,40.31
2023-03-20T08:20:33.182Z,40.17
2023-03-20T08:21:36.863Z,41.46
2023-03-20T08:22:39.286Z,40.57
2023-03-20T08:23:42.886Z,41.64
2023-03-20T08:24:46.705Z,41.74
2023-03-20T08:25:52.321Z,41.77
2023-03-20T08:26:55.800Z,42.53
2023-03-20T08:27:58.405Z,41.24
2023-03-20T08:29:02.206Z,41.80
2023-03-20T08:30:05.540Z,42.50
2023-03-20T08:31:10.805Z,41.45
2023-03-20T08:32:14.482Z,40.13
2023-03-20T08:33:18.259Z,41.76
2023-03-20T08:34:24.054Z,40.84
2023-03-20T08:35:33.368Z,39.96
2023-03-20T08:36:37.330Z,40.00
2023-03-20T08:37:39.798Z,39.46
2023-03-20T08:38:43.917Z,38.60
2023-03-20T08:39:46.431Z,39.38
2023-03-20T08:40:51.692Z,38.78
2023-03-20T08:41:55.231Z,38.61
2023-03-20T08:42:58.115Z,38.32
2023-03-20T08:44:01.981Z,39.66
2023-03-20T08:45:06.526Z,39.03
2023-03-20T08:46:09.128Z,39.49
2023-03-20T08:47:12.884Z,40.10
2023-03-20T08:48:15.401Z,40.18
2023-03-20T08:49:18.936Z,40.97
2023-03-20T08:50:22.826Z,41.15
2023-03-20T08:51:25.762Z,40.79
2023-03-20T08:52:29.200Z,41.34
2023-03-20T08:53:32.764Z,40.68
2023-03-20T08:54:36.648Z,40.89
2023-03-20T08:55:40.195Z,40.50
2023-03-20T08:56:45.258Z,40.05
2023-03-20T08:57:48.730Z,40.73
2023-03-20T08:58:54.944Z,41.02
2023-03-20T08:59:59.723Z,41.33
2023-03-20T09:01:05.875Z,42.93
2023-03-20T09:02:12.560Z,43.72
2023-03-20T09:03:16.578Z,43.83
2023-03-20T09:04:20.575Z,43.49
2023-03-20T09:05:24.141Z,43.74
2023-03-20T09:06:27.533Z,42.91
2023-03-20T09:07:29.967Z,42.61
2023-03-20T09:08:33.610Z,43.53
2023-03-20T09:09:37.367Z,42.57
2023-03-20T09:10:40.902Z,43.39
2023-03-20T09:11:46.028Z,43.27
2023-03-20T09:12:48.493Z,42.46
2023-03-20T09:13:52.768Z,42.35
2023-03-20T09:14:55.345Z,41.58
2023-03-20T09:15:59.760Z,41.45
2023-03-20T09:17:02.235Z,41.82
2023-03-20T09:18:06.062Z,42.02
2023-03-20T09:19:08.551Z,43.39
2023-03-20T09:20:12.861Z,44.24
2023-03-20T09:21:16.693Z,43.57
2023-03-20T09:22:19.533Z,43.63
2023-03-20T09:23:23.590Z,43.19
2023-03-20T09:24:27.184Z,41.84
2023-03-20T09:25:29.897Z,41.93
2023-03-20T09:26:33.214Z,42.36
2023-03-20T09:27:36.966Z,42.71
2023-03-20T09:28:40.753Z,42.56
2023-03-20T09:29:44.797Z,40.77
2023-03-20T09:30:47.997Z,42.81
2023-03-20T09:31:51.486Z,44.31
2023-03-20T09:32:54.231Z,43.84
2023-03-20T09:33:57.712Z,44.08
2023-03-20T09:35:00.166Z,43.51
2023-03-20T09:36:03.659Z,41.26
2023-03-20T09:37:06.768Z,42.92
2023-03-20T09:38:10.249Z,42.07
2023-03-20T09:39:13.750Z,42.59
2023-03-20T09:40:28.534Z,41.79
2023-03-20T09:41:49.233Z,40.81
2023-03-20T09:43:10.560Z,40.50
2023-03-20T09:44:27.581Z,42.41
2023-03-20T09:45:44.886Z,42.28
2023-03-20T09:47:16.542Z,42.08
2023-03-20T09:48:31.251Z,44.43
2023-03-20T09:49:44.516Z,46.07
2023-03-20T09:50:56.259Z,44.63
2023-03-20T09:52:02.460Z,43.06
2023-03-20T09:53:11.595Z,42.30
2023-03-20T09:54:23.298Z,41.97
2023-03-20T09:55:33.356Z,43.68
2023-03-20T09:56:36.558Z,44.00
2023-03-20T09:57:42.656Z,43.50
2023-03-20T09:58:55.057Z,43.72
2023-03-20T10:00:00.836Z,42.25
2023-03-20T10:01:07.070Z,41.95
2023-03-20T10:02:16.841Z,42.18
2023-03-20T10:03:23.947Z,41.18
2023-03-20T10:04:29.135Z,42.21
2023-03-20T10:05:38.247Z,40.46
2023-03-20T10:06:42.224Z,39.38
2023-03-20T10:07:44.678Z,39.20
2023-03-20T10:08:48.618Z,42.25
2023-03-20T10:09:51.079Z,40.66
2023-03-20T10:11:05.056Z,39.25
2023-03-20T10:12:26.229Z,39.85
2023-03-20T10:13:57.295Z,39.85
2023-03-20T10:15:08.547Z,40.77
2023-03-20T10:16:21.253Z,38.94
2023-03-20T10:17:47.636Z,41.06
2023-03-20T10:19:03.389Z,39.08
2023-03-20T10:20:15.146Z,41.22
2023-03-20T10:21:23.840Z,39.39
2023-03-20T10:22:31.306Z,38.85
2023-03-20T10:23:36.962Z,38.19
2023-03-20T10:24:44.116Z,39.55
2023-03-20T10:25:51.346Z,40.19
2023-03-20T10:26:56.779Z,40.92
2023-03-20T10:28:01.402Z,39.08
2023-03-20T10:29:16.964Z,39.07
2023-03-20T10:30:34.741Z,39.85
2023-03-20T10:31:45.326Z,40.14
2023-03-20T10:32:56.846Z,40.27
2023-03-20T10:34:18.020Z,39.94
2023-03-20T10:35:30.220Z,41.16
2023-03-20T10:36:47.627Z,40.12
2023-03-20T10:38:08.427Z,40.67
2023-03-20T10:39:21.424Z,40.29
2023-03-20T10:40:29.141Z,41.68
2023-03-20T10:41:36.766Z,41.59
2023-03-20T10:42:44.923Z,40.28
2023-03-20T10:43:52.575Z,39.60
2023-03-20T10:45:02.076Z,40.61
2023-03-20T10:46:08.384Z,40.85
2023-03-20T10:47:14.627Z,41.32
2023-03-20T10:48:24.211Z,41.17
2023-03-20T10:49:36.979Z,40.34
2023-03-20T10:50:45.279Z,39.45
2023-03-20T10:51:52.495Z,39.63
2023-03-20T10:52:57.936Z,38.88
2023-03-20T10:54:04.846Z,39.43
2023-03-20T10:56:17.196Z,41.27
2023-03-20T10:57:24.681Z,41.15
2023-03-20T10:58:31.251Z,40.91
2023-03-20T10:59:40.586Z,41.84
2023-03-20T11:00:45.758Z,41.78
2023-03-20T11:01:49.325Z,40.09
2023-03-20T11:02:52.206Z,41.13
2023-03-20T11:03:56.577Z,40.75
2023-03-20T11:05:02.302Z,39.89
2023-03-20T11:06:11.699Z,39.26
2023-03-20T11:07:24.981Z,40.21
2023-03-20T11:08:35.773Z,40.00
2023-03-20T11:09:39.423Z,40.66
2023-03-20T11:10:45.033Z,40.46
2023-03-20T11:11:48.144Z,39.58
2023-03-20T11:12:52.581Z,40.09
2023-03-20T11:13:57.233Z,40.92
2023-03-20T11:15:01.313Z,42.78
2023-03-20T11:16:22.323Z,43.00
2023-03-20T11:17:29.649Z,42.94
2023-03-20T11:18:33.383Z,42.96
2023-03-20T11:19:39.277Z,41.78
2023-03-20T11:20:47.199Z,42.54
2023-03-20T11:21:53.161Z,40.89
2023-03-20T11:23:02.240Z,40.81
2023-03-20T11:24:28.165Z,39.57
2023-03-20T11:25:34.532Z,40.93
2023-03-20T11:26:40.397Z,41.73
2023-03-20T11:27:42.903Z,42.01
2023-03-20T11:28:54.300Z,42.92
2023-03-20T11:29:58.745Z,45.77
2023-03-20T11:31:06.944Z,46.16
2023-03-20T11:32:23.685Z,48.11
2023-03-20T11:33:29.488Z,49.65
2023-03-20T11:34:37.851Z,50.11
2023-03-20T11:35:48.059Z,49.96
2023-03-20T11:37:09.245Z,49.54
2023-03-20T11:38:17.319Z,49.77
2023-03-20T11:39:26.553Z,50.54
2023-03-20T11:40:32.981Z,49.81
2023-03-20T11:41:44.332Z,51.03
2023-03-20T11:42:56.026Z,50.46
2023-03-20T11:43:58.846Z,49.53
2023-03-20T11:45:05.772Z,49.85
2023-03-20T11:46:13.396Z,50.90
2023-03-20T11:47:24.311Z,50.85
2023-03-20T11:48:38.064Z,51.32
2023-03-20T11:49:48.139Z,50.78
2023-03-20T11:50:59.858Z,49.20
2023-03-20T11:52:12.848Z,48.86
2023-03-20T11:53:24.485Z,47.69
2023-03-20T11:54:28.711Z,47.67
2023-03-20T11:55:33.948Z,47.86
2023-03-20T11:56:38.407Z,48.89
2023-03-20T11:57:47.166Z,48.25
2023-03-20T11:58:57.008Z,48.74
2023-03-20T12:00:04.694Z,49.42
2023-03-20T12:01:11.405Z,50.06
2023-03-20T12:02:25.136Z,49.99
2023-03-20T12:03:40.773Z,49.61
2023-03-20T12:04:45.869Z,50.27
2023-03-20T12:05:48.279Z,50.66
2023-03-20T12:06:57.427Z,51.28
2023-03-20T12:08:04.794Z,51.68
2023-03-20T12:09:16.365Z,51.35
2023-03-20T12:10:19.858Z,51.10
2023-03-20T12:11:37.916Z,51.63
2023-03-20T12:12:45.876Z,52.19
2023-03-20T12:13:51.608Z,51.08
2023-03-20T12:15:03.409Z,51.98
2023-03-20T12:16:12.076Z,52.54
2023-03-20T12:17:33.995Z,52.82
2023-03-20T12:18:39.943Z,52.14
2023-03-20T12:19:44.565Z,52.83
2023-03-20T12:20:58.368Z,51.65
2023-03-20T12:22:08.840Z,51.37
2023-03-20T12:23:15.240Z,51.54
2023-03-20T12:24:29.029Z,51.27
2023-03-20T12:25:37.826Z,50.71
2023-03-20T12:26:47.949Z,50.37
2023-03-20T12:27:58.291Z,50.14
2023-03-20T12:29:07.901Z,50.55
2023-03-20T12:30:17.412Z,49.20
2023-03-20T12:31:27.679Z,47.93
2023-03-20T12:32:38.067Z,47.99
2023-03-20T12:33:46.308Z,48.77
2023-03-20T12:34:52.082Z,48.88
2023-03-20T12:35:57.744Z,46.38
2023-03-20T12:37:01.490Z,45.04
2023-03-20T12:38:05.164Z,45.29
2023-03-20T12:39:16.253Z,44.91
2023-03-20T12:40:22.070Z,43.58
2023-03-20T12:41:30.760Z,43.82
2023-03-20T12:42:42.931Z,44.26
2023-03-20T12:44:05.810Z,43.96
2023-03-20T12:45:13.267Z,43.93
2023-03-20T12:46:26.416Z,43.73
2023-03-20T12:47:48.468Z,44.80
2023-03-20T12:48:59.199Z,43.37
2023-03-20T12:50:12.615Z,44.24
2023-03-20T12:51:27.654Z,44.48
2023-03-20T12:52:42.067Z,46.78
2023-03-20T12:53:55.803Z,48.55
2023-03-20T12:55:13.392Z,49.31
2023-03-20T12:56:29.699Z,48.80
2023-03-20T12:57:40.598Z,50.33
2023-03-20T12:58:49.129Z,50.39
2023-03-20T13:00:05.946Z,51.83
2023-03-20T13:01:15.647Z,50.76
2023-03-20T13:02:36.130Z,51.22
2023-03-20T13:04:01.222Z,50.84
2023-03-20T13:05:18.270Z,50.88
2023-03-20T13:06:31.385Z,49.93
2023-03-20T13:07:53.236Z,50.35
2023-03-20T13:09:31.277Z,50.89
2023-03-20T13:10:39.231Z,50.14
2023-03-20T13:11:47.594Z,49.61
2023-03-20T13:13:05.690Z,50.64
2023-03-20T13:14:19.606Z,50.93
2023-03-20T13:15:33.318Z,50.41
2023-03-20T13:16:47.473Z,49.54
2023-03-20T13:18:02.044Z,50.00
2023-03-20T13:19:13.016Z,50.96
2023-03-20T13:20:24.306Z,49.83
2023-03-20T13:21:36.780Z,48.75
2023-03-20T13:22:54.541Z,48.87
2023-03-20T13:24:13.000Z,48.55
2023-03-20T13:25:34.435Z,49.64
2023-03-20T13:26:43.217Z,50.08
2023-03-20T13:27:53.778Z,51.50
2023-03-20T13:29:07.145Z,51.03
2023-03-20T13:30:33.538Z,51.80
2023-03-20T13:31:45.321Z,51.89
2023-03-20T13:33:01.223Z,52.54
2023-03-20T13:34:13.418Z,51.92
2023-03-20T13:35:32.177Z,52.06
2023-03-20T13:36:48.915Z,52.29
2023-03-20T13:37:55.579Z,50.33
2023-03-20T13:39:05.011Z,49.79
2023-03-20T13:40:20.231Z,50.48
2023-03-20T13:41:24.992Z,51.05
2023-03-20T13:42:35.101Z,50.22
2023-03-20T13:43:44.767Z,48.81
2023-03-20T13:44:50.095Z,49.07
2023-03-20T13:46:08.032Z,47.63
2023-03-20T13:47:16.278Z,47.09
2023-03-20T13:48:27.701Z,48.30
2023-03-20T13:49:38.108Z,51.35
2023-03-20T13:50:49.965Z,51.33
2023-03-20T13:52:00.357Z,49.53
2023-03-20T13:53:09.346Z,49.60
2023-03-20T13:54:28.758Z,50.34
2023-03-20T13:55:39.480Z,50.21
2023-03-20T13:56:52.726Z,51.21
2023-03-20T13:58:12.236Z,50.70
2023-03-20T13:59:37.714Z,52.42
2023-03-20T14:00:48.587Z,52.37
2023-03-20T14:01:58.232Z,52.11
2023-03-20T14:03:22.893Z,53.43
2023-03-20T14:04:29.516Z,52.24
2023-03-20T14:05:37.989Z,51.81
2023-03-20T14:06:59.892Z,51.78
2023-03-20T14:08:23.440Z,52.65
2023-03-20T14:09:29.822Z,53.39
2023-03-20T14:10:38.503Z,53.73
2023-03-20T14:11:42.434Z,54.24
2023-03-20T14:12:50.427Z,52.79
2023-03-20T14:13:58.186Z,52.91
2023-03-20T14:15:04.732Z,53.33
2023-03-20T14:16:12.070Z,53.18
2023-03-20T14:17:21.034Z,53.74
2023-03-20T14:18:26.681Z,53.17
2023-03-20T14:19:31.759Z,52.16
2023-03-20T14:20:37.335Z,52.01
2023-03-20T14:21:41.847Z,51.80
2023-03-20T14:22:49.191Z,52.09
2023-03-20T14:23:59.277Z,50.70
2023-03-20T14:25:08.249Z,50.38
2023-03-20T14:26:19.257Z,51.30